Time;durP1;ratioP1;P1;durP2;ratioP2;P2;SDS_P1;SDS_P2;PMS_P1;PMS_P2;Temp;Humidity;BMP_temperature;BMP_pressure;BME280_temperature;BME280_humidity;BME280_pressure;Samples;Min_cycle;Max_cycle;Signal;HPM_P1;HPM_P2
2022/10/20 00:00:59;;;;;;;6.60;2.60;;;10.60;99.90;;;;;;5071271;28;20024;-32
2022/10/20 00:03:26;;;;;;;9.02;3.00;;;10.60;99.90;;;;;;5062886;28;20041;-38
2022/10/20 00:05:51;;;;;;;3.70;3.00;;;10.60;99.90;;;;;;5076819;28;20545;-40
2022/10/20 00:08:17;;;;;;;7.15;2.92;;;10.50;99.90;;;;;;5073523;28;20021;-30
2022/10/20 00:10:54;;;;;;;4.88;3.08;;;10.50;99.90;;;;;;5076138;28;20353;-31
2022/10/20 00:13:21;;;;;;;4.80;3.33;;;10.50;99.90;;;;;;5075926;28;20058;-31
2022/10/20 00:15:54;;;;;;;4.60;3.00;;;10.50;99.90;;;;;;5074064;28;20497;-33
2022/10/20 00:18:21;;;;;;;7.28;2.85;;;10.50;99.90;;;;;;5073351;28;20020;-31
2022/10/20 00:20:47;;;;;;;5.00;3.42;;;10.50;99.90;;;;;;5068387;28;20024;-47
2022/10/20 00:23:12;;;;;;;5.45;2.97;;;10.50;99.90;;;;;;5074507;28;20613;-41
2022/10/20 00:25:38;;;;;;;28.27;3.80;;;10.50;99.90;;;;;;5073705;28;20032;-40
2022/10/20 00:28:04;;;;;;;5.22;3.42;;;10.50;99.90;;;;;;5073759;28;20012;-39
2022/10/20 00:30:30;;;;;;;5.32;2.80;;;10.50;99.90;;;;;;5075566;28;20032;-38
2022/10/20 00:32:55;;;;;;;5.25;3.13;;;10.50;99.90;;;;;;5075561;28;20036;-37
2022/10/20 00:35:21;;;;;;;3.85;3.33;;;10.50;99.90;;;;;;5074562;28;20024;-38
2022/10/20 00:37:46;;;;;;;5.28;2.90;;;10.40;99.90;;;;;;5074609;28;20090;-39
2022/10/20 00:40:12;;;;;;;3.92;3.05;;;10.40;99.90;;;;;;5075283;28;20032;-40
2022/10/20 00:42:45;;;;;;;6.80;2.75;;;10.40;99.90;;;;;;5074512;28;20530;-40
2022/10/20 00:45:17;;;;;;;6.85;2.67;;;10.40;99.90;;;;;;5058196;28;20021;-40
2022/10/20 00:47:48;;;;;;;4.47;2.72;;;10.30;99.90;;;;;;5075278;28;20488;-40
2022/10/20 00:50:52;;;;;;;5.25;2.95;;;10.30;99.90;;;;;;5075539;28;20472;-39
2022/10/20 00:53:18;;;;;;;5.40;3.30;;;10.30;99.90;;;;;;5065212;28;20131;-38
2022/10/20 00:55:48;;;;;;;8.73;3.33;;;10.30;99.90;;;;;;5074341;28;20017;-39
2022/10/20 00:58:14;;;;;;;7.60;3.80;;;10.40;99.90;;;;;;5068848;28;20078;-46
2022/10/20 01:00:42;;;;;;;6.22;3.63;;;10.30;99.90;;;;;;5074184;28;20430;-39
2022/10/20 01:03:15;;;;;;;6.70;3.42;;;10.30;99.90;;;;;;5075457;28;20041;-36
2022/10/20 01:05:41;;;;;;;5.35;2.53;;;10.30;99.90;;;;;;5084254;28;20020;-38
2022/10/20 01:08:07;;;;;;;5.95;3.20;;;10.30;99.90;;;;;;5073205;28;20016;-67
2022/10/20 01:10:52;;;;;;;4.93;3.22;;;10.30;99.90;;;;;;5074685;28;20512;-39
2022/10/20 01:13:52;;;;;;;14.05;3.08;;;10.40;99.90;;;;;;5073269;28;20016;-39
2022/10/20 01:16:42;;;;;;;4.60;2.83;;;10.40;99.90;;;;;;5070570;28;20025;-39
2022/10/20 01:19:20;;;;;;;3.05;2.75;;;10.30;99.90;;;;;;5074883;28;20551;-39
2022/10/20 01:22:18;;;;;;;7.85;2.95;;;10.30;99.90;;;;;;5074627;28;20013;-39
2022/10/20 01:25:16;;;;;;;5.63;3.20;;;10.30;99.90;;;;;;5061640;28;20111;-39
2022/10/20 01:28:07;;;;;;;8.82;3.15;;;10.30;99.90;;;;;;5073058;28;20499;-39
2022/10/20 01:30:38;;;;;;;5.68;4.57;;;10.20;99.90;;;;;;5072573;28;20012;-39
2022/10/20 01:33:31;;;;;;;10.07;3.38;;;10.20;99.90;;;;;;5071598;28;20401;-39
2022/10/20 01:36:32;;;;;;;8.07;3.65;;;10.20;99.90;;;;;;5063955;28;20535;-46
2022/10/20 01:39:08;;;;;;;6.05;3.88;;;10.10;99.90;;;;;;5074194;28;20074;-38
2022/10/20 01:41:44;;;;;;;8.73;3.60;;;10.10;99.90;;;;;;5072516;28;20405;-37
2022/10/20 01:44:13;;;;;;;5.03;3.28;;;10.00;99.90;;;;;;5072181;28;20034;-40
2022/10/20 01:46:43;;;;;;;8.35;3.75;;;10.00;99.90;;;;;;5071495;28;20059;-39
2022/10/20 01:49:11;;;;;;;7.45;3.70;;;10.00;99.90;;;;;;5071274;28;20059;-39
2022/10/20 01:51:37;;;;;;;7.80;4.40;;;10.00;99.90;;;;;;5064938;28;20446;-36
2022/10/20 01:54:02;;;;;;;26.67;4.97;;;10.00;99.90;;;;;;5072290;28;20024;-48
2022/10/20 02:00:04;;;;;;;6.68;3.47;;;10.00;99.90;;;;;;5066891;28;20044;-38
2022/10/20 02:02:54;;;;;;;5.78;3.30;;;10.00;99.90;;;;;;5068805;28;20585;-41
2022/10/20 02:05:35;;;;;;;10.27;4.88;;;10.00;99.90;;;;;;5071544;28;20388;-39
2022/10/20 02:08:36;;;;;;;4.60;3.72;;;10.00;99.90;;;;;;5072015;28;20029;-37
2022/10/20 02:11:04;;;;;;;8.88;4.20;;;10.00;99.90;;;;;;5051549;28;20128;-39
2022/10/20 02:13:31;;;;;;;10.43;4.20;;;10.00;99.90;;;;;;5072537;28;20507;-38
2022/10/20 02:16:00;;;;;;;16.00;4.30;;;10.10;99.90;;;;;;5072433;28;20028;-38
2022/10/20 02:18:35;;;;;;;8.65;4.57;;;10.10;99.90;;;;;;5070486;28;20024;-39
2022/10/20 02:21:03;;;;;;;7.78;4.38;;;10.10;99.90;;;;;;5070068;28;20032;-37
2022/10/20 02:23:32;;;;;;;9.38;4.18;;;10.10;99.90;;;;;;5070377;28;20025;-38
2022/10/20 02:25:59;;;;;;;5.30;4.15;;;10.10;99.90;;;;;;5072849;28;20031;-38
2022/10/20 02:28:27;;;;;;;9.57;4.50;;;10.00;99.90;;;;;;5072134;28;20566;-40
2022/10/20 02:30:54;;;;;;;7.97;4.57;;;10.00;99.90;;;;;;5069262;28;20454;-35
2022/10/20 02:33:21;;;;;;;8.85;4.13;;;10.00;99.90;;;;;;5069638;28;20398;-40
2022/10/20 02:35:55;;;;;;;8.48;4.70;;;10.00;99.90;;;;;;5070153;28;20075;-39
2022/10/20 02:38:21;;;;;;;7.30;4.25;;;10.10;99.90;;;;;;5071038;28;20023;-38
2022/10/20 02:40:46;;;;;;;10.80;4.95;;;10.10;99.90;;;;;;5071720;28;20384;-38
2022/10/20 02:43:12;;;;;;;8.35;4.38;;;10.20;99.90;;;;;;5069980;28;20029;-38
2022/10/20 02:45:38;;;;;;;10.00;4.50;;;10.20;99.90;;;;;;5070490;28;20020;-53
2022/10/20 02:48:04;;;;;;;11.10;4.78;;;10.30;99.90;;;;;;5071464;28;20350;-39
2022/10/20 02:50:30;;;;;;;13.00;5.68;;;10.30;99.90;;;;;;5070806;28;20032;-40
2022/10/20 02:52:55;;;;;;;11.20;5.82;;;10.30;99.90;;;;;;5072263;28;20028;-39
2022/10/20 02:55:21;;;;;;;7.05;4.97;;;10.30;99.90;;;;;;5071293;28;20032;-39
2022/10/20 02:57:47;;;;;;;12.68;5.20;;;10.30;99.90;;;;;;5067852;28;20485;-39
2022/10/20 03:00:13;;;;;;;6.50;4.95;;;10.30;99.90;;;;;;5070072;28;20073;-51
2022/10/20 03:02:38;;;;;;;9.27;4.47;;;10.30;99.90;;;;;;5071161;28;20449;-40
2022/10/20 03:05:04;;;;;;;11.30;5.32;;;10.30;99.90;;;;;;5071263;28;20146;-39
2022/10/20 03:07:30;;;;;;;16.85;6.28;;;10.40;99.90;;;;;;5070913;28;20090;-39
2022/10/20 03:09:55;;;;;;;10.40;5.85;;;10.40;99.90;;;;;;5072138;28;20498;-39
2022/10/20 03:12:21;;;;;;;11.85;5.45;;;10.40;99.90;;;;;;5072270;28;20526;-39
2022/10/20 03:14:47;;;;;;;14.25;6.25;;;10.40;99.90;;;;;;5071777;28;20029;-40
2022/10/20 03:17:12;;;;;;;14.20;5.45;;;10.50;99.90;;;;;;5072452;28;20032;-41
2022/10/20 03:19:39;;;;;;;12.45;6.63;;;10.50;99.90;;;;;;5070030;28;20112;-39
2022/10/20 03:22:05;;;;;;;10.95;6.32;;;10.50;99.90;;;;;;5071368;28;20469;-40
2022/10/20 03:24:30;;;;;;;8.98;5.25;;;10.50;99.90;;;;;;5071526;28;20032;-42
2022/10/20 03:26:56;;;;;;;19.60;7.35;;;10.50;99.90;;;;;;5072225;28;20032;-43
2022/10/20 03:29:22;;;;;;;10.07;6.18;;;10.60;99.90;;;;;;5070422;28;20099;-36
2022/10/20 03:31:47;;;;;;;10.70;6.03;;;10.60;99.90;;;;;;5071143;28;20033;-36
2022/10/20 03:34:13;;;;;;;9.73;5.72;;;10.70;99.90;;;;;;5071952;28;20029;-33
2022/10/20 03:36:39;;;;;;;19.08;6.53;;;10.70;99.90;;;;;;5070799;28;20108;-38
2022/10/20 03:39:04;;;;;;;11.02;6.07;;;10.70;99.90;;;;;;5068742;28;20041;-32
2022/10/20 03:41:30;;;;;;;14.15;5.72;;;10.80;99.90;;;;;;5071449;28;20028;-34
2022/10/20 03:43:55;;;;;;;8.38;5.85;;;10.80;99.90;;;;;;5071222;28;20024;-35
2022/10/20 03:46:21;;;;;;;12.07;6.25;;;10.90;99.90;;;;;;5070939;28;20441;-35
2022/10/20 03:48:47;;;;;;;13.68;5.93;;;10.90;99.90;;;;;;5068957;28;20035;-36
2022/10/20 03:51:13;;;;;;;9.88;6.25;;;10.90;99.90;;;;;;5069425;28;20166;-32
2022/10/20 03:53:39;;;;;;;11.00;6.20;;;11.00;99.90;;;;;;5070905;28;20384;-34
2022/10/20 03:56:11;;;;;;;14.27;6.55;;;11.00;99.90;;;;;;5069968;28;20039;-41
2022/10/20 03:58:37;;;;;;;12.02;6.03;;;11.00;99.90;;;;;;5070464;28;20036;-32
2022/10/20 04:01:03;;;;;;;8.88;5.85;;;11.00;99.90;;;;;;5071223;28;20020;-31
2022/10/20 04:03:28;;;;;;;11.48;5.53;;;11.10;99.90;;;;;;5069966;28;20055;-32
2022/10/20 04:05:54;;;;;;;13.85;6.07;;;11.10;99.90;;;;;;5071674;28;20024;-35
2022/10/20 04:08:20;;;;;;;13.25;6.25;;;11.10;99.90;;;;;;5068912;28;20503;-32
2022/10/20 04:10:45;;;;;;;16.25;5.93;;;11.10;99.90;;;;;;5070616;28;20108;-40
2022/10/20 04:13:11;;;;;;;16.08;6.75;;;11.20;99.90;;;;;;5071619;28;20107;-32
2022/10/20 04:15:36;;;;;;;10.15;5.20;;;11.20;99.90;;;;;;5071423;28;20497;-33
2022/10/20 04:18:05;;;;;;;11.63;5.90;;;11.20;99.90;;;;;;5069378;28;20027;-32
2022/10/20 04:20:30;;;;;;;10.45;5.47;;;11.20;99.90;;;;;;5074345;28;20036;-31
2022/10/20 04:22:56;;;;;;;13.30;5.60;;;11.20;99.90;;;;;;5071241;28;20035;-36
2022/10/20 04:25:21;;;;;;;12.13;5.05;;;11.20;99.90;;;;;;5074275;28;20021;-31
2022/10/20 04:27:47;;;;;;;10.82;6.25;;;11.30;99.90;;;;;;5074170;28;20028;-33
2022/10/20 04:30:13;;;;;;;12.30;6.38;;;11.30;99.90;;;;;;5074993;28;20111;-34
2022/10/20 04:32:38;;;;;;;12.00;5.55;;;11.30;99.90;;;;;;5074318;28;20111;-32
2022/10/20 04:35:04;;;;;;;10.85;6.25;;;11.30;99.90;;;;;;5074481;28;20036;-32
2022/10/20 04:37:48;;;;;;;8.93;6.10;;;11.20;99.90;;;;;;5071820;28;20500;-30
2022/10/20 04:40:14;;;;;;;8.95;6.20;;;11.20;99.90;;;;;;5073919;28;20032;-32
2022/10/20 04:42:39;;;;;;;8.32;5.20;;;11.20;99.90;;;;;;5072641;28;20396;-31
2022/10/20 04:45:05;;;;;;;14.75;6.78;;;11.20;99.90;;;;;;5074491;28;20020;-30
2022/10/20 04:47:32;;;;;;;13.65;6.03;;;11.30;99.90;;;;;;5074314;28;20586;-34
2022/10/20 04:49:57;;;;;;;11.57;5.65;;;11.30;99.90;;;;;;5072396;28;20480;-39
2022/10/20 04:52:23;;;;;;;12.07;6.60;;;11.20;99.90;;;;;;5075151;28;20029;-45
2022/10/20 04:54:49;;;;;;;11.80;6.13;;;11.20;99.90;;;;;;5071624;28;20051;-38
2022/10/20 04:57:14;;;;;;;7.50;5.63;;;11.20;99.90;;;;;;5056474;28;20028;-39
2022/10/20 04:59:40;;;;;;;13.60;6.00;;;11.30;99.90;;;;;;5071482;28;20024;-51
2022/10/20 05:02:06;;;;;;;11.55;6.28;;;11.20;99.90;;;;;;5074154;28;20028;-39
2022/10/20 05:04:31;;;;;;;9.32;5.47;;;11.30;99.90;;;;;;5062615;28;20377;-40
2022/10/20 05:06:57;;;;;;;8.02;5.43;;;11.30;99.90;;;;;;5055000;28;20021;-38
2022/10/20 05:09:22;;;;;;;13.75;6.43;;;11.20;99.90;;;;;;5066912;28;20489;-39
2022/10/20 05:11:48;;;;;;;14.75;6.78;;;11.30;99.90;;;;;;5071215;28;20024;-38
2022/10/20 05:14:13;;;;;;;11.57;5.63;;;11.30;99.90;;;;;;5062293;28;20024;-38
2022/10/20 05:16:39;;;;;;;9.70;6.32;;;11.30;99.90;;;;;;5072513;28;20185;-38
2022/10/20 05:19:05;;;;;;;16.25;6.07;;;11.20;99.90;;;;;;5071578;28;20037;-40
2022/10/20 05:21:31;;;;;;;12.63;6.38;;;11.20;99.90;;;;;;5073904;28;20024;-37
2022/10/20 05:23:59;;;;;;;11.10;6.15;;;11.20;99.90;;;;;;5072136;28;20078;-40
2022/10/20 05:26:26;;;;;;;10.52;6.57;;;11.20;99.90;;;;;;5072138;28;20454;-35
2022/10/20 05:28:52;;;;;;;13.55;6.18;;;11.10;99.90;;;;;;5084697;28;20477;-38
2022/10/20 05:31:20;;;;;;;10.48;6.07;;;11.10;99.90;;;;;;5073065;28;20085;-31
2022/10/20 05:33:47;;;;;;;;;;;11.20;99.90;;;;;;5071573;28;20040;-40
2022/10/20 05:36:15;;;;;;;9.57;5.05;;;11.10;99.90;;;;;;5072816;28;19915;-40
2022/10/20 05:38:41;;;;;;;19.50;6.30;;;11.10;99.90;;;;;;5073059;28;20025;-39
2022/10/20 05:41:09;;;;;;;10.15;6.13;;;11.00;99.90;;;;;;5071752;28;20421;-40
2022/10/20 05:43:34;;;;;;;16.58;5.25;;;11.00;99.90;;;;;;5070748;28;20048;-37
2022/10/20 05:46:00;;;;;;;10.23;6.35;;;11.00;99.90;;;;;;5072703;28;20093;-40
2022/10/20 05:48:26;;;;;;;17.52;6.40;;;11.00;99.90;;;;;;5073606;28;20020;-38
2022/10/20 05:50:51;;;;;;;11.35;6.13;;;11.00;99.90;;;;;;5073453;28;20099;-39
2022/10/20 05:53:17;;;;;;;12.73;6.25;;;11.00;99.90;;;;;;5072628;28;20547;-39
2022/10/20 05:55:42;;;;;;;13.52;6.97;;;11.00;99.90;;;;;;5062147;28;20025;-41
2022/10/20 05:58:08;;;;;;;13.25;5.63;;;11.00;99.90;;;;;;5073199;28;20477;-40
2022/10/20 06:00:40;;;;;;;8.75;5.53;;;11.00;99.90;;;;;;5071433;28;20104;-40
2022/10/20 06:03:09;;;;;;;10.10;5.53;;;11.00;99.90;;;;;;5071039;28;20037;-41
2022/10/20 06:05:34;;;;;;;9.65;5.53;;;11.00;99.90;;;;;;5066764;28;20029;-39
2022/10/20 06:08:00;;;;;;;13.77;5.32;;;11.00;99.90;;;;;;5072118;28;20035;-38
2022/10/20 06:10:25;;;;;;;12.32;6.28;;;11.00;99.90;;;;;;5071883;28;20575;-39
2022/10/20 06:12:51;;;;;;;14.65;5.85;;;11.00;99.90;;;;;;5072560;28;20099;-42
2022/10/20 06:15:17;;;;;;;15.45;5.85;;;11.00;99.90;;;;;;5069120;28;20043;-38
2022/10/20 06:17:45;;;;;;;11.68;6.13;;;11.00;99.90;;;;;;5071047;28;20488;-41
2022/10/20 06:20:11;;;;;;;10.88;5.63;;;11.00;99.90;;;;;;5072392;28;20442;-40
2022/10/20 06:22:37;;;;;;;8.70;5.72;;;10.90;99.90;;;;;;5070532;28;20037;-40
2022/10/20 06:25:03;;;;;;;11.38;6.10;;;10.90;99.90;;;;;;5071478;28;20052;-40
2022/10/20 06:27:28;;;;;;;16.08;5.93;;;10.80;99.90;;;;;;5072542;28;20074;-41
2022/10/20 06:29:54;;;;;;;9.10;6.28;;;10.90;99.90;;;;;;5070026;28;20032;-40
2022/10/20 06:32:19;;;;;;;8.27;6.10;;;10.80;99.90;;;;;;5071887;28;20032;-40
2022/10/20 06:34:45;;;;;;;11.32;6.53;;;10.80;99.90;;;;;;5071721;28;20495;-39
2022/10/20 06:37:10;;;;;;;14.18;6.22;;;10.80;99.90;;;;;;5064458;28;20041;-40
2022/10/20 06:39:36;;;;;;;10.40;6.50;;;10.80;99.90;;;;;;5069725;28;20024;-34
2022/10/20 06:42:04;;;;;;;16.75;6.57;;;10.80;99.90;;;;;;5069406;28;20111;-38
2022/10/20 06:44:30;;;;;;;18.08;6.78;;;10.80;99.90;;;;;;5072457;28;20028;-35
2022/10/20 06:46:55;;;;;;;10.00;6.35;;;10.80;99.90;;;;;;5072537;28;20370;-31
2022/10/20 06:49:22;;;;;;;13.82;6.05;;;10.90;99.90;;;;;;5074591;28;20507;-38
2022/10/20 06:51:48;;;;;;;13.07;6.03;;;10.90;99.90;;;;;;5072362;28;20056;-31
2022/10/20 06:54:14;;;;;;;12.43;5.97;;;10.90;99.90;;;;;;5070552;28;20430;-30
2022/10/20 06:56:39;;;;;;;10.98;6.82;;;10.90;99.90;;;;;;5067581;28;20036;-35
2022/10/20 06:59:05;;;;;;;13.77;6.20;;;10.90;99.90;;;;;;5072093;28;20028;-32
2022/10/20 07:01:33;;;;;;;10.93;5.75;;;11.00;99.90;;;;;;5067816;28;20090;-30
2022/10/20 07:04:18;;;;;;;;;;;11.00;99.90;;;;;;5070864;28;20045;-34
2022/10/20 07:06:45;;;;;;;11.07;5.05;;;11.10;99.90;;;;;;5069685;28;19908;-36
2022/10/20 07:09:14;;;;;;;7.32;4.75;;;11.10;99.90;;;;;;5070364;28;20020;-33
2022/10/20 07:11:40;;;;;;;13.52;5.97;;;11.00;99.90;;;;;;5070284;28;20060;-34
2022/10/20 07:14:06;;;;;;;8.82;5.65;;;11.10;99.90;;;;;;5071618;28;20028;-32
2022/10/20 07:16:33;;;;;;;11.00;6.07;;;11.10;99.90;;;;;;5072703;28;20031;-31
2022/10/20 07:19:00;;;;;;;9.57;5.90;;;11.10;99.90;;;;;;5071528;28;20028;-30
2022/10/20 07:21:27;;;;;;;9.13;5.78;;;11.20;99.90;;;;;;5069269;28;20032;-33
2022/10/20 07:23:55;;;;;;;13.80;5.75;;;11.20;99.90;;;;;;5071285;28;20028;-33
2022/10/20 07:26:26;;;;;;;9.70;5.97;;;11.20;99.90;;;;;;5064919;28;20498;-33
2022/10/20 07:28:54;;;;;;;8.20;5.85;;;11.20;99.90;;;;;;5071678;28;20476;-32
2022/10/20 07:31:21;;;;;;;;;;;11.20;99.90;;;;;;5068289;28;20040;-34
2022/10/20 07:33:47;;;;;;;26.42;6.68;;;11.20;99.90;;;;;;5066046;28;20421;-31
2022/10/20 07:36:17;;;;;;;10.57;6.68;;;11.20;99.90;;;;;;5070662;28;20520;-32
2022/10/20 07:38:43;;;;;;;11.13;5.40;;;11.20;99.90;;;;;;5070667;28;20082;-32
2022/10/20 07:41:09;;;;;;;10.35;5.20;;;11.30;99.90;;;;;;5066657;28;20032;-30
2022/10/20 07:43:36;;;;;;;10.48;6.07;;;11.30;99.90;;;;;;5069158;28;20029;-30
2022/10/20 07:46:02;;;;;;;14.40;5.90;;;11.30;99.90;;;;;;5070308;28;20047;-33
2022/10/20 07:48:27;;;;;;;9.25;5.82;;;11.30;99.90;;;;;;5070105;28;20107;-33
2022/10/20 07:50:53;;;;;;;15.32;6.93;;;11.40;99.90;;;;;;5070702;28;20465;-30
2022/10/20 07:53:19;;;;;;;11.50;6.68;;;11.40;99.90;;;;;;5074438;28;20056;-32
2022/10/20 07:55:44;;;;;;;12.77;5.80;;;11.50;99.90;;;;;;5072597;28;20589;-33
2022/10/20 07:58:11;;;;;;;10.48;6.28;;;11.50;99.90;;;;;;5071868;28;20073;-30
2022/10/20 08:00:37;;;;;;;11.27;6.30;;;11.50;99.90;;;;;;5073116;28;20040;-30
2022/10/20 08:03:02;;;;;;;13.00;5.97;;;11.50;99.90;;;;;;5068524;28;20059;-36
2022/10/20 08:05:28;;;;;;;10.45;6.25;;;11.50;99.90;;;;;;5071924;28;20017;-31
2022/10/20 08:07:54;;;;;;;15.10;6.75;;;11.60;99.90;;;;;;5076178;28;20025;-34
2022/10/20 08:10:20;;;;;;;16.27;6.50;;;11.60;99.90;;;;;;5074006;28;20504;-55
2022/10/20 08:12:46;;;;;;;13.50;6.60;;;11.60;99.90;;;;;;5074059;28;20109;-36
2022/10/20 08:15:12;;;;;;;12.15;6.65;;;11.70;99.90;;;;;;5074202;28;20038;-33
2022/10/20 08:17:37;;;;;;;10.15;6.57;;;11.70;99.90;;;;;;5074781;28;20082;-35
2022/10/20 08:20:04;;;;;;;9.82;6.75;;;11.80;99.90;;;;;;5074969;28;20465;-31
2022/10/20 08:22:30;;;;;;;12.95;6.78;;;11.80;99.90;;;;;;5072029;28;20025;-34
2022/10/20 08:24:55;;;;;;;12.75;6.03;;;11.90;99.90;;;;;;5075644;28;20427;-32
2022/10/20 08:27:21;;;;;;;13.10;6.60;;;11.90;99.90;;;;;;5074103;28;20040;-35
2022/10/20 08:29:47;;;;;;;11.30;6.57;;;12.00;99.90;;;;;;5073662;28;20032;-38
2022/10/20 08:32:13;;;;;;;14.70;5.93;;;12.10;99.90;;;;;;5074503;28;20193;-36
2022/10/20 08:34:39;;;;;;;13.23;6.07;;;12.10;99.90;;;;;;5073875;28;20029;-35
2022/10/20 08:37:05;;;;;;;9.80;6.35;;;12.10;99.90;;;;;;5074112;28;20090;-37
2022/10/20 08:39:31;;;;;;;11.75;6.95;;;12.20;99.90;;;;;;5072881;28;20055;-37
2022/10/20 08:41:57;;;;;;;16.13;6.55;;;12.20;99.90;;;;;;5073123;28;20509;-38
2022/10/20 08:44:28;;;;;;;9.10;5.72;;;12.30;99.90;;;;;;5073188;28;20126;-36
2022/10/20 08:46:53;;;;;;;18.80;6.22;;;12.30;99.90;;;;;;5074423;28;20507;-39
2022/10/20 08:49:23;;;;;;;11.88;6.50;;;12.40;99.90;;;;;;5070336;28;20028;-34
2022/10/20 08:51:49;;;;;;;7.82;6.03;;;12.40;99.90;;;;;;5070760;28;20552;-37
2022/10/20 08:54:15;;;;;;;12.43;6.20;;;12.40;99.90;;;;;;5074183;28;20036;-38
2022/10/20 08:56:43;;;;;;;15.68;7.18;;;12.40;99.90;;;;;;5073836;28;20492;-41
2022/10/20 08:59:36;;;;;;;14.00;6.43;;;12.40;99.90;;;;;;5073071;28;20029;-35
2022/10/20 09:02:08;;;;;;;11.20;5.93;;;12.50;99.90;;;;;;5055597;28;20291;-36
2022/10/20 09:04:39;;;;;;;13.48;6.28;;;12.60;99.90;;;;;;5073097;28;20040;-35
2022/10/20 09:07:19;;;;;;;12.20;6.22;;;12.60;99.90;;;;;;5073047;28;20488;-36
2022/10/20 09:09:46;;;;;;;12.57;6.60;;;12.70;99.90;;;;;;5068773;28;20028;-33
2022/10/20 09:12:13;;;;;;;11.20;6.50;;;12.80;99.90;;;;;;5071329;28;20725;-50
2022/10/20 09:14:39;;;;;;;10.68;6.65;;;12.80;99.90;;;;;;5066133;28;20111;-34
2022/10/20 09:17:15;;;;;;;18.48;7.50;;;12.80;99.90;;;;;;5069580;28;20118;-31
2022/10/20 09:19:48;;;;;;;13.27;6.75;;;12.90;99.90;;;;;;5067014;28;20039;-31
2022/10/20 09:22:15;;;;;;;14.73;6.35;;;12.90;99.90;;;;;;5064829;28;20035;-31
2022/10/20 09:24:43;;;;;;;14.17;8.30;;;13.00;99.90;;;;;;5068368;28;20507;-38
2022/10/20 09:27:34;;;;;;;24.05;7.43;;;13.00;99.90;;;;;;5069101;28;20962;-42
2022/10/20 09:30:34;;;;;;;12.48;6.53;;;13.10;99.90;;;;;;5072380;28;20032;-38
2022/10/20 09:33:18;;;;;;;11.02;6.13;;;13.10;99.90;;;;;;5074517;28;20032;-32
2022/10/20 09:35:46;;;;;;;10.70;6.63;;;13.20;99.90;;;;;;5072221;28;20028;-32
2022/10/20 09:38:22;;;;;;;11.07;6.80;;;13.20;99.90;;;;;;5072432;28;20036;-36
2022/10/20 09:41:15;;;;;;;20.50;6.68;;;13.30;99.90;;;;;;5074239;28;20488;-34
2022/10/20 09:43:50;;;;;;;14.05;6.22;;;13.30;99.90;;;;;;5074221;28;20021;-39
2022/10/20 09:46:21;;;;;;;10.93;6.72;;;13.40;99.90;;;;;;5069007;28;20484;-41
2022/10/20 09:48:49;;;;;;;16.35;7.28;;;13.40;99.90;;;;;;5069715;28;20487;-42
2022/10/20 09:51:18;;;;;;;12.25;8.13;;;13.50;99.90;;;;;;5064880;28;20436;-40
2022/10/20 09:53:53;;;;;;;13.18;7.93;;;13.50;99.90;;;;;;5060194;28;20070;-40
2022/10/20 09:56:24;;;;;;;12.45;7.18;;;13.50;99.90;;;;;;5066984;28;20485;-39
2022/10/20 09:58:50;;;;;;;15.65;6.70;;;13.60;99.90;;;;;;5059852;28;20033;-39
2022/10/20 10:01:17;;;;;;;16.52;6.82;;;13.70;99.90;;;;;;5052248;28;20040;-40
2022/10/20 10:03:44;;;;;;;13.30;7.20;;;13.80;99.90;;;;;;5052408;28;20378;-40
2022/10/20 10:06:42;;;;;;;17.25;6.88;;;13.80;99.90;;;;;;5066208;28;20396;-38
2022/10/20 10:09:33;;;;;;;9.63;6.82;;;13.90;99.90;;;;;;5072746;28;20025;-40
2022/10/20 10:12:16;;;;;;;11.73;7.38;;;13.90;99.90;;;;;;5072420;28;20060;-40
2022/10/20 10:14:57;;;;;;;9.48;6.10;;;14.00;99.90;;;;;;5070997;28;20477;-41
2022/10/20 10:17:34;;;;;;;16.13;7.90;;;14.00;99.90;;;;;;5062649;28;20020;-39
2022/10/20 10:20:10;;;;;;;11.83;7.23;;;14.00;99.90;;;;;;5070596;28;20036;-42
2022/10/20 10:22:37;;;;;;;10.73;7.22;;;14.20;99.90;;;;;;5077410;28;20016;-42
2022/10/20 10:25:05;;;;;;;14.77;8.23;;;14.20;99.90;;;;;;5093237;28;20488;-41
2022/10/20 10:27:35;;;;;;;12.93;7.28;;;14.20;99.90;;;;;;5093290;28;20034;-39
2022/10/20 10:30:22;;;;;;;17.88;8.40;;;14.30;99.90;;;;;;5078397;28;20043;-39
2022/10/20 10:32:48;;;;;;;17.83;7.80;;;14.30;99.90;;;;;;5052850;28;20401;-39
2022/10/20 10:35:25;;;;;;;14.65;7.60;;;14.30;99.90;;;;;;5053076;28;20029;-39
2022/10/20 10:37:52;;;;;;;16.17;7.70;;;14.20;99.90;;;;;;5053283;28;20071;-39
2022/10/20 10:40:19;;;;;;;11.63;7.55;;;14.30;99.90;;;;;;5053446;28;20484;-40
2022/10/20 10:42:59;;;;;;;14.55;8.32;;;14.30;99.90;;;;;;5068521;28;20071;-41
2022/10/20 10:45:44;;;;;;;13.23;7.75;;;14.30;99.90;;;;;;5053219;28;20029;-39
2022/10/20 10:48:23;;;;;;;20.50;8.15;;;14.40;99.90;;;;;;5072408;28;20481;-38
2022/10/20 10:50:56;;;;;;;13.55;7.65;;;14.30;99.90;;;;;;5072863;28;20111;-40
2022/10/20 10:53:59;;;;;;;13.80;7.82;;;14.30;99.90;;;;;;5072090;28;20028;-40
2022/10/20 10:56:49;;;;;;;16.45;8.95;;;14.30;99.90;;;;;;5053006;28;20025;-40
2022/10/20 10:59:27;;;;;;;12.95;7.68;;;14.30;99.90;;;;;;5065240;28;20029;-40
2022/10/20 11:02:02;;;;;;;;;;;14.30;99.90;;;;;;5073444;28;20435;-40
2022/10/20 11:04:47;;;;;;;16.42;8.80;;;14.40;99.90;;;;;;5072161;28;19917;-40
2022/10/20 11:07:41;;;;;;;12.23;7.15;;;14.40;99.90;;;;;;5071774;28;20020;-39
2022/10/20 11:10:24;;;;;;;16.63;8.38;;;14.40;99.90;;;;;;5072809;28;20024;-39
2022/10/20 11:13:26;;;;;;;15.88;8.05;;;14.30;99.90;;;;;;5072797;28;20024;-40
2022/10/20 11:15:58;;;;;;;13.32;8.05;;;14.30;99.90;;;;;;5072679;28;20025;-39
2022/10/20 11:19:11;;;;;;;14.63;8.40;;;14.30;99.90;;;;;;5073067;28;20027;-41
2022/10/20 11:22:09;;;;;;;24.73;7.72;;;14.20;99.90;;;;;;5072132;28;20040;-40
2022/10/20 11:24:50;;;;;;;20.15;9.52;;;14.20;99.90;;;;;;5071631;28;20021;-40
2022/10/20 11:27:19;;;;;;;22.50;9.63;;;14.10;99.90;;;;;;5072034;28;20503;-41
2022/10/20 11:30:04;;;;;;;20.20;9.57;;;14.10;99.90;;;;;;5075781;28;20392;-39
2022/10/20 11:32:38;;;;;;;14.32;8.82;;;14.10;99.90;;;;;;5074078;28;20496;-38
2022/10/20 11:35:28;;;;;;;13.55;9.23;;;14.10;99.90;;;;;;5075588;28;20016;-38
2022/10/20 11:38:20;;;;;;;16.13;8.48;;;14.10;99.90;;;;;;5072519;28;20449;-41
2022/10/20 11:41:16;;;;;;;19.75;9.35;;;14.00;99.90;;;;;;5074701;28;20035;-40
2022/10/20 11:43:45;;;;;;;25.73;10.68;;;14.00;99.90;;;;;;5074811;28;20043;-40
2022/10/20 11:46:37;;;;;;;15.25;9.07;;;14.00;99.90;;;;;;5075693;28;20086;-40
2022/10/20 11:49:03;;;;;;;17.75;8.60;;;13.90;99.90;;;;;;5076748;28;20470;-41
2022/10/20 11:51:29;;;;;;;13.50;8.80;;;13.90;99.90;;;;;;5076570;28;20093;-41
2022/10/20 11:54:15;;;;;;;14.32;9.02;;;13.80;99.90;;;;;;5075817;28;20388;-40
2022/10/20 11:57:00;;;;;;;16.42;9.93;;;13.80;99.90;;;;;;5076591;28;20421;-40
2022/10/20 11:59:57;;;;;;;18.20;9.55;;;13.80;99.90;;;;;;5076191;28;20389;-40
2022/10/20 12:02:47;;;;;;;18.23;9.63;;;13.80;99.90;;;;;;5076094;28;20111;-40
2022/10/20 12:05:33;;;;;;;21.33;9.57;;;13.90;99.90;;;;;;5076144;28;20399;-41
2022/10/20 12:08:11;;;;;;;17.90;10.07;;;13.80;99.90;;;;;;5076098;28;20043;-41
2022/10/20 12:10:42;;;;;;;20.58;10.18;;;13.90;99.90;;;;;;5076148;28;20024;-38
2022/10/20 12:13:32;;;;;;;16.55;9.60;;;13.80;99.90;;;;;;5075431;28;20028;-39
2022/10/20 12:15:58;;;;;;;20.55;10.30;;;13.90;99.90;;;;;;5076032;28;20476;-41
2022/10/20 12:18:28;;;;;;;21.65;10.73;;;14.00;99.90;;;;;;5075945;28;20020;-42
2022/10/20 12:21:00;;;;;;;18.25;10.38;;;14.00;99.90;;;;;;5075933;28;20074;-41
2022/10/20 12:23:52;;;;;;;21.38;10.50;;;14.00;99.90;;;;;;5075955;28;20052;-40
2022/10/20 12:26:35;;;;;;;23.80;10.77;;;14.10;99.90;;;;;;5076045;28;20045;-34
2022/10/20 12:29:44;;;;;;;18.27;10.30;;;14.10;99.90;;;;;;5073752;28;20544;-34
2022/10/20 12:32:34;;;;;;;18.85;9.48;;;14.10;99.90;;;;;;5069856;28;20524;-32
2022/10/20 12:35:08;;;;;;;18.17;10.43;;;14.10;99.90;;;;;;5075449;28;20112;-34
2022/10/20 12:37:36;;;;;;;17.42;9.18;;;14.10;99.90;;;;;;5075510;28;20029;-34
2022/10/20 12:40:07;;;;;;;16.77;9.37;;;14.20;99.90;;;;;;5074146;28;20488;-32
2022/10/20 12:42:37;;;;;;;17.48;10.45;;;14.10;99.90;;;;;;5075380;28;20025;-34
2022/10/20 12:45:06;;;;;;;23.92;10.25;;;14.20;99.90;;;;;;5074395;28;20027;-37
2022/10/20 12:47:35;;;;;;;24.42;10.63;;;14.20;99.90;;;;;;5074159;28;20095;-32
2022/10/20 12:50:06;;;;;;;21.85;10.85;;;14.20;99.90;;;;;;5074545;28;20480;-32
2022/10/20 12:52:41;;;;;;;24.25;10.80;;;14.20;99.90;;;;;;5073829;28;20111;-31
2022/10/20 12:55:12;;;;;;;25.08;11.13;;;14.20;99.90;;;;;;5073316;28;20477;-36
2022/10/20 12:57:40;;;;;;;19.70;11.40;;;14.20;99.90;;;;;;5072285;28;20495;-30
2022/10/20 13:00:18;;;;;;;20.60;11.07;;;14.20;99.90;;;;;;5074955;28;20471;-33
2022/10/20 13:02:51;;;;;;;20.77;10.63;;;14.30;99.90;;;;;;5074200;28;20488;-31
2022/10/20 13:05:17;;;;;;;17.95;10.13;;;14.40;99.90;;;;;;5074989;28;20078;-31